sensor_id;sensor_type;location;lat;lon;timestamp;pressure;altitude;pressure_sealevel;temperature;humidity
62420;BME280;48460;51.616;5.426;2023-02-28T05:50:01;102953.66;;;-0.26;99.67
62420;BME280;48460;51.616;5.426;2023-02-28T05:52:56;102965.00;;;-0.21;100.00
62420;BME280;48460;51.616;5.426;2023-02-28T05:58:18;102966.69;;;-0.21;100.00
62420;BME280;48460;51.616;5.426;2023-02-28T06:00:48;102956.28;;;-0.25;100.00
62420;BME280;48460;51.616;5.426;2023-02-28T06:03:17;102959.78;;;-0.22;99.91
62420;BME280;48460;51.616;5.426;2023-02-28T06:05:42;102962.41;;;-0.21;100.00
62420;BME280;48460;51.616;5.426;2023-02-28T06:08:11;102957.97;;;-0.27;100.00
62420;BME280;48460;51.616;5.426;2023-02-28T06:10:36;102956.19;;;-0.28;100.00
62420;BME280;48460;51.616;5.426;2023-02-28T06:13:05;102956.09;;;-0.32;100.00
62420;BME280;48460;51.616;5.426;2023-02-28T06:15:31;102959.63;;;-0.29;100.00
62420;BME280;48460;51.616;5.426;2023-02-28T06:18:00;102970.97;;;-0.24;100.00
62420;BME280;48460;51.616;5.426;2023-02-28T06:20:28;102962.06;;;-0.33;100.00
62420;BME280;48460;51.616;5.426;2023-02-28T06:22:58;102972.59;;;-0.27;100.00
62420;BME280;48460;51.616;5.426;2023-02-28T06:25:25;102982.19;;;-0.23;100.00
62420;BME280;48460;51.616;5.426;2023-02-28T06:28:02;102975.22;;;-0.26;100.00
62420;BME280;48460;51.616;5.426;2023-02-28T06:30:28;102977.66;;;-0.30;100.00
62420;BME280;48460;51.616;5.426;2023-02-28T06:32:56;102975.31;;;-0.22;100.00
62420;BME280;48460;51.616;5.426;2023-02-28T06:35:22;102968.31;;;-0.27;100.00
62420;BME280;48460;51.616;5.426;2023-02-28T06:38:00;102970.94;;;-0.25;100.00
62420;BME280;48460;51.616;5.426;2023-02-28T06:40:26;102974.38;;;-0.25;100.00
62420;BME280;48460;51.616;5.426;2023-02-28T06:42:59;102977.91;;;-0.21;100.00
62420;BME280;48460;51.616;5.426;2023-02-28T06:45:24;102983.38;;;-0.12;100.00
62420;BME280;48460;51.616;5.426;2023-02-28T06:47:51;102977.34;;;-0.11;100.00
62420;BME280;48460;51.616;5.426;2023-02-28T06:50:20;102970.53;;;-0.07;100.00
62420;BME280;48460;51.616;5.426;2023-02-28T06:52:46;102965.53;;;-0.01;99.16
62420;BME280;48460;51.616;5.426;2023-02-28T06:55:14;102978.69;;;0.08;99.80
62420;BME280;48460;51.616;5.426;2023-02-28T06:57:42;102993.56;;;0.17;98.55
62420;BME280;48460;51.616;5.426;2023-02-28T07:00:09;102986.84;;;0.23;97.83
62420;BME280;48460;51.616;5.426;2023-02-28T07:02:35;102986.25;;;0.34;96.61
62420;BME280;48460;51.616;5.426;2023-02-28T07:05:01;102973.47;;;0.41;95.22
62420;BME280;48460;51.616;5.426;2023-02-28T07:07:34;102987.63;;;0.54;94.11
62420;BME280;48460;51.616;5.426;2023-02-28T07:10:02;102992.88;;;0.59;92.47
62420;BME280;48460;51.616;5.426;2023-02-28T07:12:31;102983.31;;;0.55;92.13
62420;BME280;48460;51.616;5.426;2023-02-28T07:15:01;102995.75;;;0.70;91.68
62420;BME280;48460;51.616;5.426;2023-02-28T07:17:28;102987.03;;;0.66;91.75
62420;BME280;48460;51.616;5.426;2023-02-28T07:19:54;102991.63;;;0.78;91.00
62420;BME280;48460;51.616;5.426;2023-02-28T07:22:19;102988.22;;;0.80;89.46
62420;BME280;48460;51.616;5.426;2023-02-28T07:24:50;102999.75;;;0.95;88.64
62420;BME280;48460;51.616;5.426;2023-02-28T07:27:19;103010.13;;;0.95;86.01
62420;BME280;48460;51.616;5.426;2023-02-28T07:29:51;103009.31;;;0.96;87.20
62420;BME280;48460;51.616;5.426;2023-02-28T07:32:27;103012.13;;;1.06;86.17
62420;BME280;48460;51.616;5.426;2023-02-28T07:35:02;103013.00;;;1.07;84.16
62420;BME280;48460;51.616;5.426;2023-02-28T07:37:30;103020.22;;;1.20;84.01
62420;BME280;48460;51.616;5.426;2023-02-28T07:39:59;103021.06;;;1.21;82.21
62420;BME280;48460;51.616;5.426;2023-02-28T07:42:30;103007.94;;;1.13;81.74
62420;BME280;48460;51.616;5.426;2023-02-28T07:45:12;103008.13;;;1.21;81.93
62420;BME280;48460;51.616;5.426;2023-02-28T07:47:51;103010.81;;;1.25;82.11
62420;BME280;48460;51.616;5.426;2023-02-28T07:50:19;103017.75;;;1.26;80.40
62420;BME280;48460;51.616;5.426;2023-02-28T07:53:10;103030.88;;;1.34;81.17
62420;BME280;48460;51.616;5.426;2023-02-28T07:55:38;103030.91;;;1.35;80.76
62420;BME280;48460;51.616;5.426;2023-02-28T07:58:14;103014.34;;;1.29;80.37
62420;BME280;48460;51.616;5.426;2023-02-28T08:00:42;103036.81;;;1.28;80.31
62420;BME280;48460;51.616;5.426;2023-02-28T08:03:19;103019.56;;;1.30;80.14
62420;BME280;48460;51.616;5.426;2023-02-28T08:05:46;103015.34;;;1.34;77.15
62420;BME280;48460;51.616;5.426;2023-02-28T08:08:44;103012.69;;;1.32;77.62
62420;BME280;48460;51.616;5.426;2023-02-28T08:11:15;103017.03;;;1.33;77.08
62420;BME280;48460;51.616;5.426;2023-02-28T08:13:46;103025.78;;;1.37;77.25
62420;BME280;48460;51.616;5.426;2023-02-28T08:16:15;103021.41;;;1.36;77.84
62420;BME280;48460;51.616;5.426;2023-02-28T08:18:54;103026.81;;;1.47;77.62
62420;BME280;48460;51.616;5.426;2023-02-28T08:21:24;103019.19;;;1.54;77.43
62420;BME280;48460;51.616;5.426;2023-02-28T08:23:52;103024.66;;;1.68;76.24
62420;BME280;48460;51.616;5.426;2023-02-28T08:26:18;103025.66;;;1.73;74.71
62420;BME280;48460;51.616;5.426;2023-02-28T08:28:46;103030.72;;;1.69;75.58
62420;BME280;48460;51.616;5.426;2023-02-28T08:31:14;103016.72;;;1.59;74.35
62420;BME280;48460;51.616;5.426;2023-02-28T08:33:49;103025.47;;;1.64;73.32
62420;BME280;48460;51.616;5.426;2023-02-28T08:36:17;103012.38;;;1.59;74.45
62420;BME280;48460;51.616;5.426;2023-02-28T08:38:42;103018.78;;;1.77;73.34
62420;BME280;48460;51.616;5.426;2023-02-28T08:41:10;103002.91;;;2.05;66.75
62420;BME280;48460;51.616;5.426;2023-02-28T08:43:36;103017.50;;;2.49;64.94
62420;BME280;48460;51.616;5.426;2023-02-28T08:46:03;103020.91;;;3.01;61.20
62420;BME280;48460;51.616;5.426;2023-02-28T08:48:30;103015.44;;;3.47;57.75
62420;BME280;48460;51.616;5.426;2023-02-28T08:51:05;103015.06;;;3.89;55.46
62420;BME280;48460;51.616;5.426;2023-02-28T08:53:33;103005.69;;;4.06;52.28
62420;BME280;48460;51.616;5.426;2023-02-28T08:56:03;102998.00;;;4.17;52.02
62420;BME280;48460;51.616;5.426;2023-02-28T08:58:30;103015.56;;;4.38;50.58
62420;BME280;48460;51.616;5.426;2023-02-28T09:00:59;103020.94;;;4.60;49.99
62420;BME280;48460;51.616;5.426;2023-02-28T09:03:27;103007.13;;;4.68;49.90
62420;BME280;48460;51.616;5.426;2023-02-28T09:05:57;103028.97;;;4.90;48.97
62420;BME280;48460;51.616;5.426;2023-02-28T09:08:28;103022.88;;;4.87;48.19
62420;BME280;48460;51.616;5.426;2023-02-28T09:10:57;103022.91;;;4.88;49.07
62420;BME280;48460;51.616;5.426;2023-02-28T09:13:27;103020.28;;;4.85;47.44
62420;BME280;48460;51.616;5.426;2023-02-28T09:15:54;103022.91;;;4.93;48.18
62420;BME280;48460;51.616;5.426;2023-02-28T09:18:24;103022.16;;;5.06;48.06
62420;BME280;48460;51.616;5.426;2023-02-28T09:20:56;103016.06;;;5.07;47.34
62420;BME280;48460;51.616;5.426;2023-02-28T09:23:30;103035.28;;;5.26;46.02
62420;BME280;48460;51.616;5.426;2023-02-28T09:26:00;103014.38;;;5.15;43.82
62420;BME280;48460;51.616;5.426;2023-02-28T09:28:28;103019.56;;;5.11;45.07
62420;BME280;48460;51.616;5.426;2023-02-28T09:30:59;103021.31;;;5.09;46.13
62420;BME280;48460;51.616;5.426;2023-02-28T09:33:27;103031.84;;;5.30;43.08
62420;BME280;48460;51.616;5.426;2023-02-28T09:36:01;103019.75;;;5.44;45.58
62420;BME280;48460;51.616;5.426;2023-02-28T09:38:40;103030.19;;;5.46;41.11
62420;BME280;48460;51.616;5.426;2023-02-28T09:41:37;103022.31;;;5.40;43.98
62420;BME280;48460;51.616;5.426;2023-02-28T09:44:12;103017.97;;;5.36;42.53
62420;BME280;48460;51.616;5.426;2023-02-28T09:46:49;103015.38;;;5.39;41.93
62420;BME280;48460;51.616;5.426;2023-02-28T09:49:45;103023.25;;;5.53;44.45
62420;BME280;48460;51.616;5.426;2023-02-28T09:52:32;103031.19;;;5.80;42.65
62420;BME280;48460;51.616;5.426;2023-02-28T09:57:54;103015.31;;;5.27;40.85
62420;BME280;48460;51.616;5.426;2023-02-28T10:00:39;103009.97;;;5.03;40.13
62420;BME280;48460;51.616;5.426;2023-02-28T10:08:51;103016.22;;;5.36;42.11
62420;BME280;48460;51.616;5.426;2023-02-28T10:11:18;103020.59;;;5.39;40.63
62420;BME280;48460;51.616;5.426;2023-02-28T10:13:50;103008.38;;;5.33;40.83
62420;BME280;48460;51.616;5.426;2023-02-28T10:16:27;102999.69;;;5.37;42.16
62420;BME280;48460;51.616;5.426;2023-02-28T10:21:28;103010.28;;;5.74;39.89
62420;BME280;48460;51.616;5.426;2023-02-28T10:24:11;103007.63;;;5.65;40.05
62420;BME280;48460;51.616;5.426;2023-02-28T10:26:52;103000.69;;;5.67;40.84
62420;BME280;48460;51.616;5.426;2023-02-28T10:29:25;102984.25;;;6.00;41.06
62420;BME280;48460;51.616;5.426;2023-02-28T10:36:59;102987.78;;;6.60;38.39
62420;BME280;48460;51.616;5.426;2023-02-28T10:39:36;102995.59;;;6.79;38.82
62420;BME280;48460;51.616;5.426;2023-02-28T10:42:03;102993.81;;;6.84;38.02
62420;BME280;48460;51.616;5.426;2023-02-28T10:44:36;102989.47;;;6.66;37.27
62420;BME280;48460;51.616;5.426;2023-02-28T10:47:02;102976.41;;;6.63;37.66
62420;BME280;48460;51.616;5.426;2023-02-28T10:49:46;102974.59;;;7.03;38.38
62420;BME280;48460;51.616;5.426;2023-02-28T10:52:12;102981.31;;;7.64;37.80
62420;BME280;48460;51.616;5.426;2023-02-28T10:54:40;102982.81;;;8.05;35.80
62420;BME280;48460;51.616;5.426;2023-02-28T10:57:25;102980.84;;;8.35;35.01
62420;BME280;48460;51.616;5.426;2023-02-28T10:59:52;102980.81;;;8.46;33.35
62420;BME280;48460;51.616;5.426;2023-02-28T11:02:32;102978.75;;;8.77;34.77
62420;BME280;48460;51.616;5.426;2023-02-28T11:04:58;102970.53;;;9.09;32.61
62420;BME280;48460;51.616;5.426;2023-02-28T11:07:34;102978.41;;;9.10;33.08
62420;BME280;48460;51.616;5.426;2023-02-28T11:10:02;102969.31;;;9.36;32.62
62420;BME280;48460;51.616;5.426;2023-02-28T11:12:39;102961.31;;;9.45;32.74
62420;BME280;48460;51.616;5.426;2023-02-28T11:15:22;102970.84;;;9.55;32.45
62420;BME280;48460;51.616;5.426;2023-02-28T11:20:29;102960.50;;;10.02;32.03
62420;BME280;48460;51.616;5.426;2023-02-28T11:22:59;102957.53;;;9.68;31.49
62420;BME280;48460;51.616;5.426;2023-02-28T11:25:33;102961.06;;;9.64;31.58
62420;BME280;48460;51.616;5.426;2023-02-28T11:28:33;102964.25;;;9.87;32.72
62420;BME280;48460;51.616;5.426;2023-02-28T11:31:05;102963.69;;;10.22;31.44
62420;BME280;48460;51.616;5.426;2023-02-28T11:36:08;102948.69;;;10.29;31.76
62420;BME280;48460;51.616;5.426;2023-02-28T11:38:35;102958.81;;;10.54;31.20
62420;BME280;48460;51.616;5.426;2023-02-28T11:46:06;102962.03;;;11.14;31.03
62420;BME280;48460;51.616;5.426;2023-02-28T11:48:47;102960.00;;;11.69;29.64
62420;BME280;48460;51.616;5.426;2023-02-28T11:51:36;102950.19;;;12.13;30.07
62420;BME280;48460;51.616;5.426;2023-02-28T11:54:21;102949.31;;;11.75;29.26
62420;BME280;48460;51.616;5.426;2023-02-28T12:05:52;102944.97;;;11.32;28.82
62420;BME280;48460;51.616;5.426;2023-02-28T12:13:55;102951.88;;;11.38;29.10
62420;BME280;48460;51.616;5.426;2023-02-28T12:16:47;102938.78;;;11.35;29.45
62420;BME280;48460;51.616;5.426;2023-02-28T12:19:48;102941.06;;;11.91;29.96
62420;BME280;48460;51.616;5.426;2023-02-28T12:22:27;102936.41;;;12.38;28.42
62420;BME280;48460;51.616;5.426;2023-02-28T12:27:31;102929.69;;;12.24;28.44
62420;BME280;48460;51.616;5.426;2023-02-28T12:30:02;102916.25;;;11.99;28.88
62420;BME280;48460;51.616;5.426;2023-02-28T12:32:36;102927.09;;;12.23;28.54
62420;BME280;48460;51.616;5.426;2023-02-28T12:37:55;102921.91;;;12.20;28.23
62420;BME280;48460;51.616;5.426;2023-02-28T12:40:25;102923.66;;;12.19;28.66
62420;BME280;48460;51.616;5.426;2023-02-28T12:42:59;102918.47;;;12.49;28.23
62420;BME280;48460;51.616;5.426;2023-02-28T12:45:39;102907.56;;;12.63;28.31
62420;BME280;48460;51.616;5.426;2023-02-28T12:48:08;102914.63;;;13.23;27.86
62420;BME280;48460;51.616;5.426;2023-02-28T12:50:36;102905.94;;;13.19;26.97
62420;BME280;48460;51.616;5.426;2023-02-28T12:53:14;102903.91;;;12.68;27.11
62420;BME280;48460;51.616;5.426;2023-02-28T13:11:25;102884.81;;;12.59;27.18
62420;BME280;48460;51.616;5.426;2023-02-28T13:14:03;102880.59;;;12.19;28.29
62420;BME280;48460;51.616;5.426;2023-02-28T13:17:12;102871.56;;;12.60;28.35
62420;BME280;48460;51.616;5.426;2023-02-28T13:19:55;102880.03;;;12.71;27.86
62420;BME280;48460;51.616;5.426;2023-02-28T13:27:56;102861.75;;;13.25;26.99
62420;BME280;48460;51.616;5.426;2023-02-28T13:33:28;102866.88;;;12.70;27.24
62420;BME280;48460;51.616;5.426;2023-02-28T13:44:28;102864.97;;;12.11;28.41
62420;BME280;48460;51.616;5.426;2023-02-28T13:49:44;102854.91;;;12.25;28.32
62420;BME280;48460;51.616;5.426;2023-02-28T13:52:27;102852.03;;;12.66;27.91
62420;BME280;48460;51.616;5.426;2023-02-28T13:55:19;102859.50;;;12.83;28.41
62420;BME280;48460;51.616;5.426;2023-02-28T14:06:38;102851.44;;;12.56;27.84
62420;BME280;48460;51.616;5.426;2023-02-28T14:09:27;102856.56;;;12.92;27.04
62420;BME280;48460;51.616;5.426;2023-02-28T14:11:57;102832.72;;;12.95;27.20
62420;BME280;48460;51.616;5.426;2023-02-28T14:17:30;102841.50;;;13.23;27.03
62420;BME280;48460;51.616;5.426;2023-02-28T14:20:12;102830.81;;;13.30;26.93
62420;BME280;48460;51.616;5.426;2023-02-28T14:25:55;102829.25;;;12.32;27.92
62420;BME280;48460;51.616;5.426;2023-02-28T14:31:46;102827.53;;;11.97;28.44
62420;BME280;48460;51.616;5.426;2023-02-28T14:37:39;102821.28;;;11.65;28.68
62420;BME280;48460;51.616;5.426;2023-02-28T14:40:29;102834.28;;;11.73;28.71
62420;BME280;48460;51.616;5.426;2023-02-28T14:43:05;102821.28;;;11.65;28.47
62420;BME280;48460;51.616;5.426;2023-02-28T14:45:37;102829.63;;;11.47;28.76
62420;BME280;48460;51.616;5.426;2023-02-28T14:48:04;102812.31;;;11.72;29.32
62420;BME280;48460;51.616;5.426;2023-02-28T14:50:41;102828.59;;;12.22;28.36
62420;BME280;48460;51.616;5.426;2023-02-28T14:53:21;102822.25;;;11.61;28.72
62420;BME280;48460;51.616;5.426;2023-02-28T14:55:48;102815.66;;;11.43;29.06
62420;BME280;48460;51.616;5.426;2023-02-28T14:58:28;102828.06;;;11.75;29.22
62420;BME280;48460;51.616;5.426;2023-02-28T15:01:09;102811.25;;;11.79;29.27
62420;BME280;48460;51.616;5.426;2023-02-28T15:03:39;102826.97;;;12.18;28.54
62420;BME280;48460;51.616;5.426;2023-02-28T15:06:16;102821.94;;;12.09;29.03
62420;BME280;48460;51.616;5.426;2023-02-28T15:08:44;102815.03;;;12.05;28.52
62420;BME280;48460;51.616;5.426;2023-02-28T15:11:18;102817.78;;;11.64;28.59
62420;BME280;48460;51.616;5.426;2023-02-28T15:13:50;102812.25;;;11.39;29.22
62420;BME280;48460;51.616;5.426;2023-02-28T15:16:39;102822.94;;;11.32;30.28
62420;BME280;48460;51.616;5.426;2023-02-28T15:19:22;102821.78;;;11.44;29.77
62420;BME280;48460;51.616;5.426;2023-02-28T15:22:06;102833.34;;;11.38;30.09
62420;BME280;48460;51.616;5.426;2023-02-28T15:24:49;102810.63;;;11.34;29.52
62420;BME280;48460;51.616;5.426;2023-02-28T15:27:22;102812.97;;;11.45;30.12
62420;BME280;48460;51.616;5.426;2023-02-28T15:29:57;102818.25;;;11.45;29.26
62420;BME280;48460;51.616;5.426;2023-02-28T15:32:33;102820.22;;;11.36;30.00
62420;BME280;48460;51.616;5.426;2023-02-28T15:35:27;102829.06;;;11.32;30.41
62420;BME280;48460;51.616;5.426;2023-02-28T15:38:03;102829.34;;;11.22;30.55
62420;BME280;48460;51.616;5.426;2023-02-28T15:41:00;102829.22;;;10.87;30.91
62420;BME280;48460;51.616;5.426;2023-02-28T15:43:30;102832.00;;;10.36;31.33
62420;BME280;48460;51.616;5.426;2023-02-28T15:48:54;102814.53;;;9.28;33.22
62420;BME280;48460;51.616;5.426;2023-02-28T15:51:45;102815.16;;;8.82;33.41
62420;BME280;48460;51.616;5.426;2023-02-28T15:54:45;102813.94;;;8.35;34.63
62420;BME280;48460;51.616;5.426;2023-02-28T15:57:39;102816.97;;;7.94;35.43
62420;BME280;48460;51.616;5.426;2023-02-28T16:00:20;102810.25;;;7.65;36.26
62420;BME280;48460;51.616;5.426;2023-02-28T16:02:49;102811.31;;;7.40;37.41
62420;BME280;48460;51.616;5.426;2023-02-28T16:07:54;102804.56;;;7.00;37.88
62420;BME280;48460;51.616;5.426;2023-02-28T16:10:30;102795.94;;;6.86;37.91
62420;BME280;48460;51.616;5.426;2023-02-28T16:13:06;102803.84;;;6.75;38.41
62420;BME280;48460;51.616;5.426;2023-02-28T16:15:43;102811.69;;;6.69;39.22
62420;BME280;48460;51.616;5.426;2023-02-28T16:18:27;102802.16;;;6.64;39.04
62420;BME280;48460;51.616;5.426;2023-02-28T16:20:55;102808.34;;;6.39;39.72
62420;BME280;48460;51.616;5.426;2023-02-28T16:23:21;102808.31;;;6.41;39.33
62420;BME280;48460;51.616;5.426;2023-02-28T16:30:54;102806.66;;;6.11;41.03
62420;BME280;48460;51.616;5.426;2023-02-28T16:33:23;102809.25;;;6.12;40.97
62420;BME280;48460;51.616;5.426;2023-02-28T16:35:49;102815.34;;;6.19;41.58
62420;BME280;48460;51.616;5.426;2023-02-28T16:38:15;102805.75;;;6.18;40.31
62420;BME280;48460;51.616;5.426;2023-02-28T16:40:40;102809.28;;;6.05;41.18
62420;BME280;48460;51.616;5.426;2023-02-28T16:43:22;102819.72;;;5.99;41.69
62420;BME280;48460;51.616;5.426;2023-02-28T16:45:55;102824.03;;;5.87;40.75
62420;BME280;48460;51.616;5.426;2023-02-28T16:48:25;102823.16;;;5.88;42.34
62420;BME280;48460;51.616;5.426;2023-02-28T16:51:14;102829.31;;;6.01;42.00
62420;BME280;48460;51.616;5.426;2023-02-28T16:53:42;102824.03;;;5.80;41.42
62420;BME280;48460;51.616;5.426;2023-02-28T16:59:27;102829.28;;;5.60;42.71
62420;BME280;48460;51.616;5.426;2023-02-28T17:02:10;102830.13;;;5.49;42.77
62420;BME280;48460;51.616;5.426;2023-02-28T17:04:37;102828.38;;;5.41;43.66
62420;BME280;48460;51.616;5.426;2023-02-28T17:07:10;102841.41;;;5.39;43.28
62420;BME280;48460;51.616;5.426;2023-02-28T17:09:39;102829.19;;;5.23;44.08
62420;BME280;48460;51.616;5.426;2023-02-28T17:12:09;102837.91;;;5.23;44.82
62420;BME280;48460;51.616;5.426;2023-02-28T17:14:38;102833.53;;;5.16;44.97
62420;BME280;48460;51.616;5.426;2023-02-28T17:17:09;102855.28;;;5.15;44.59
62420;BME280;48460;51.616;5.426;2023-02-28T17:19:37;102854.41;;;5.15;45.90
62420;BME280;48460;51.616;5.426;2023-02-28T17:22:10;102857.88;;;5.17;44.95
62420;BME280;48460;51.616;5.426;2023-02-28T17:24:36;102862.19;;;5.04;45.59
62420;BME280;48460;51.616;5.426;2023-02-28T17:27:12;102874.38;;;5.07;46.48
62420;BME280;48460;51.616;5.426;2023-02-28T17:29:43;102863.91;;;4.97;47.34
62420;BME280;48460;51.616;5.426;2023-02-28T17:32:09;102870.00;;;4.98;47.07
62420;BME280;48460;51.616;5.426;2023-02-28T17:34:36;102867.31;;;4.87;46.45
62420;BME280;48460;51.616;5.426;2023-02-28T17:37:02;102872.50;;;4.76;47.57
62420;BME280;48460;51.616;5.426;2023-02-28T17:39:38;102885.56;;;4.81;48.36
62420;BME280;48460;51.616;5.426;2023-02-28T17:42:04;102882.09;;;4.79;47.44
62420;BME280;48460;51.616;5.426;2023-02-28T17:44:39;102876.78;;;4.70;48.19
62420;BME280;48460;51.616;5.426;2023-02-28T17:47:05;102881.09;;;4.60;47.34
62420;BME280;48460;51.616;5.426;2023-02-28T17:49:33;102888.00;;;4.52;48.32
62420;BME280;48460;51.616;5.426;2023-02-28T17:52:10;102886.25;;;4.46;48.36
62420;BME280;48460;51.616;5.426;2023-02-28T17:54:35;102901.03;;;4.50;49.25
62420;BME280;48460;51.616;5.426;2023-02-28T17:57:01;102903.63;;;4.52;49.32
62420;BME280;48460;51.616;5.426;2023-02-28T17:59:26;102888.78;;;4.36;48.64
62420;BME280;48460;51.616;5.426;2023-02-28T18:01:59;102896.56;;;4.34;49.82
62420;BME280;48460;51.616;5.426;2023-02-28T18:04:25;102898.28;;;4.30;49.18
62420;BME280;48460;51.616;5.426;2023-02-28T18:06:52;102903.47;;;4.26;49.10
62420;BME280;48460;51.616;5.426;2023-02-28T18:09:22;102910.41;;;4.25;49.23
62420;BME280;48460;51.616;5.426;2023-02-28T18:11:51;102896.44;;;4.19;49.78
62420;BME280;48460;51.616;5.426;2023-02-28T18:14:23;102897.28;;;4.15;49.84
62420;BME280;48460;51.616;5.426;2023-02-28T18:16:52;102896.34;;;4.05;50.69
62420;BME280;48460;51.616;5.426;2023-02-28T18:19:22;102899.81;;;4.05;51.50
62420;BME280;48460;51.616;5.426;2023-02-28T18:21:51;102898.00;;;3.98;51.48
62420;BME280;48460;51.616;5.426;2023-02-28T18:24:21;102897.13;;;3.93;51.81
62420;BME280;48460;51.616;5.426;2023-02-28T18:26:49;102890.16;;;3.91;52.21
62420;BME280;48460;51.616;5.426;2023-02-28T18:29:21;102895.34;;;3.92;52.48
62420;BME280;48460;51.616;5.426;2023-02-28T18:31:49;102903.97;;;3.86;52.38
62420;BME280;48460;51.616;5.426;2023-02-28T18:34:16;102894.41;;;3.82;51.57
62420;BME280;48460;51.616;5.426;2023-02-28T18:36:44;102904.81;;;3.81;54.02
62420;BME280;48460;51.616;5.426;2023-02-28T18:39:19;102888.22;;;3.71;53.99
62420;BME280;48460;51.616;5.426;2023-02-28T18:41:49;102899.47;;;3.69;54.19
62420;BME280;48460;51.616;5.426;2023-02-28T18:44:15;102891.59;;;3.59;53.60
62420;BME280;48460;51.616;5.426;2023-02-28T18:46:42;102897.63;;;3.57;53.78
62420;BME280;48460;51.616;5.426;2023-02-28T18:49:08;102902.00;;;3.58;54.20
62420;BME280;48460;51.616;5.426;2023-02-28T18:51:35;102901.03;;;3.50;55.55
62420;BME280;48460;51.616;5.426;2023-02-28T18:54:01;102885.31;;;3.39;55.95
62420;BME280;48460;51.616;5.426;2023-02-28T18:56:29;102894.84;;;3.37;55.50
62420;BME280;48460;51.616;5.426;2023-02-28T18:58:55;102887.84;;;3.31;56.66
62420;BME280;48460;51.616;5.426;2023-02-28T19:01:25;102899.03;;;3.26;56.72
62420;BME280;48460;51.616;5.426;2023-02-28T19:03:57;102897.19;;;3.17;57.27
62420;BME280;48460;51.616;5.426;2023-02-28T19:06:28;102901.41;;;3.07;58.18
62420;BME280;48460;51.616;5.426;2023-02-28T19:08:59;102897.81;;;2.96;59.29
62420;BME280;48460;51.616;5.426;2023-02-28T19:11:25;102903.88;;;2.95;59.27
62420;BME280;48460;51.616;5.426;2023-02-28T19:13:53;102902.03;;;2.86;59.48
62420;BME280;48460;51.616;5.426;2023-02-28T19:16:26;102906.31;;;2.83;60.34
62420;BME280;48460;51.616;5.426;2023-02-28T19:18:56;102901.00;;;2.77;58.57
62420;BME280;48460;51.616;5.426;2023-02-28T19:21:23;102904.44;;;2.72;60.29
62420;BME280;48460;51.616;5.426;2023-02-28T19:24:01;102912.22;;;2.72;59.89
62420;BME280;48460;51.616;5.426;2023-02-28T19:26:29;102907.84;;;2.68;59.99
62420;BME280;48460;51.616;5.426;2023-02-28T19:28:55;102900.84;;;2.64;60.68
62420;BME280;48460;51.616;5.426;2023-02-28T19:31:25;102919.09;;;2.70;60.05
62420;BME280;48460;51.616;5.426;2023-02-28T19:33:56;102904.25;;;2.60;60.44
62420;BME280;48460;51.616;5.426;2023-02-28T19:36:24;102911.13;;;2.58;60.29
62420;BME280;48460;51.616;5.426;2023-02-28T19:39:05;102911.97;;;2.56;60.57
62420;BME280;48460;51.616;5.426;2023-02-28T19:41:32;102922.41;;;2.57;60.77
62420;BME280;48460;51.616;5.426;2023-02-28T19:44:03;102912.75;;;2.48;60.13
62420;BME280;48460;51.616;5.426;2023-02-28T19:46:29;102927.50;;;2.51;60.16
62420;BME280;48460;51.616;5.426;2023-02-28T19:48:54;102927.50;;;2.51;61.36
62420;BME280;48460;51.616;5.426;2023-02-28T19:51:25;102937.13;;;2.58;58.50
62420;BME280;48460;51.616;5.426;2023-02-28T19:53:52;102940.44;;;2.48;60.69
62420;BME280;48460;51.616;5.426;2023-02-28T19:56:22;102931.69;;;2.43;60.75
62420;BME280;48460;51.616;5.426;2023-02-28T19:58:59;102920.25;;;2.32;59.21
62420;BME280;48460;51.616;5.426;2023-02-28T20:01:25;102938.44;;;2.30;60.47
62420;BME280;48460;51.616;5.426;2023-02-28T20:03:56;102935.75;;;2.25;61.79
62420;BME280;48460;51.616;5.426;2023-02-28T20:06:22;102948.63;;;2.18;61.12
62420;BME280;48460;51.616;5.426;2023-02-28T20:08:49;102925.06;;;2.05;61.87
62420;BME280;48460;51.616;5.426;2023-02-28T20:11:16;102923.22;;;2.00;62.24
62420;BME280;48460;51.616;5.426;2023-02-28T20:13:43;102940.53;;;2.01;61.92
62420;BME280;48460;51.616;5.426;2023-02-28T20:16:10;102930.91;;;1.95;62.76
62420;BME280;48460;51.616;5.426;2023-02-28T20:18:37;102930.84;;;1.91;62.27
62420;BME280;48460;51.616;5.426;2023-02-28T20:21:10;102935.19;;;1.92;62.35
62420;BME280;48460;51.616;5.426;2023-02-28T20:23:40;102929.84;;;1.84;62.94
62420;BME280;48460;51.616;5.426;2023-02-28T20:26:09;102940.16;;;1.81;62.95
62420;BME280;48460;51.616;5.426;2023-02-28T20:28:37;102951.50;;;1.85;64.02
62420;BME280;48460;51.616;5.426;2023-02-28T20:31:10;102951.47;;;1.83;63.32
62420;BME280;48460;51.616;5.426;2023-02-28T20:33:37;102943.53;;;1.75;64.31
62420;BME280;48460;51.616;5.426;2023-02-28T20:36:04;102950.41;;;1.73;64.78
62420;BME280;48460;51.616;5.426;2023-02-28T20:38:41;102926.81;;;1.58;65.37
62420;BME280;48460;51.616;5.426;2023-02-28T20:41:15;102930.16;;;1.52;64.77
62420;BME280;48460;51.616;5.426;2023-02-28T20:43:40;102940.56;;;1.55;63.99
62420;BME280;48460;51.616;5.426;2023-02-28T20:46:06;102931.75;;;1.47;64.51
62420;BME280;48460;51.616;5.426;2023-02-28T20:48:35;102939.59;;;1.49;63.82
62420;BME280;48460;51.616;5.426;2023-02-28T20:51:00;102933.44;;;1.44;64.72
62420;BME280;48460;51.616;5.426;2023-02-28T20:53:32;102933.38;;;1.41;65.18
62420;BME280;48460;51.616;5.426;2023-02-28T20:56:18;102942.03;;;1.41;63.85
62420;BME280;48460;51.616;5.426;2023-02-28T20:58:47;102934.13;;;1.35;64.90
62420;BME280;48460;51.616;5.426;2023-02-28T21:01:16;102938.44;;;1.34;64.89
62420;BME280;48460;51.616;5.426;2023-02-28T21:03:43;102941.03;;;1.34;64.81
62420;BME280;48460;51.616;5.426;2023-02-28T21:06:09;102935.78;;;1.31;64.33
62420;BME280;48460;51.616;5.426;2023-02-28T21:08:35;102940.09;;;1.31;65.04
62420;BME280;48460;51.616;5.426;2023-02-28T21:11:01;102939.19;;;1.30;64.93
62420;BME280;48460;51.616;5.426;2023-02-28T21:13:44;102934.75;;;1.23;64.33